Laguna Larga, Argentina
Current Conditions -  °F | °C
As of 3:00 AM on Wednesday 22 Oct 2014 (Local Time) from SACO Reporting Station
Clear Clear  
Wind Chill: 66°   Ceiling: Unl
Heat Index: 66°   Visibility: 6mi
Dew Point: 52°   Wind: 10mph
Humidity: 60%   Direction: 20°NNE
Pressure: 30"   Gusts: NA
Location:  31.77°S, 63.8°W
Report Text: SACO 220600Z 02009KT CAVOK 19/11 Q1016
Loading
Personal Weather Stations






























Interactive Weather Map New forecast layout! Learn more

10-Day Weather Forecast

Advertisements
Track Severe Weather on mobile